Time;durP1;ratioP1;P1;durP2;ratioP2;P2;SDS_P1;SDS_P2;PMS_P1;PMS_P2;Temp;Humidity;BMP_temperature;BMP_pressure;BME280_temperature;BME280_humidity;BME280_pressure;Samples;Min_cycle;Max_cycle;Signal;HPM_P1;HPM_P2
2022/09/12 00:02:09;;;;;;;0.00;0.00;;;;;;;11.28;100.00;101683.84;5068402;28;20432;-71
2022/09/12 00:04:34;;;;;;;0.00;0.00;;;;;;;11.31;100.00;101674.72;5061143;28;20558;-71
2022/09/12 00:06:59;;;;;;;0.00;0.00;;;;;;;11.36;100.00;101689.56;5066433;28;20050;-71
2022/09/12 00:09:25;;;;;;;0.00;0.00;;;;;;;11.37;100.00;101690.44;5062202;28;20055;-71
2022/09/12 00:11:50;;;;;;;0.08;0.08;;;;;;;11.33;100.00;101680.84;5062139;28;20142;-71
2022/09/12 00:14:17;;;;;;;0.00;0.00;;;;;;;11.30;100.00;101676.53;5042324;28;20273;-71
2022/09/12 00:16:43;;;;;;;0.00;0.00;;;;;;;11.25;100.00;101681.38;5048029;28;20078;-71
2022/09/12 00:19:09;;;;;;;0.10;0.10;;;;;;;11.16;100.00;101672.06;5038659;28;20029;-70
2022/09/12 00:21:35;;;;;;;0.03;0.03;;;;;;;11.24;100.00;101674.28;5038585;28;20032;-71
2022/09/12 00:24:01;;;;;;;0.00;0.00;;;;;;;11.15;100.00;101662.28;5039973;28;20033;-71
2022/09/12 00:26:26;;;;;;;0.05;0.05;;;;;;;11.20;100.00;101662.00;5042814;28;20214;-71
2022/09/12 00:28:52;;;;;;;0.10;0.10;;;;;;;11.15;100.00;101672.19;5047164;28;20309;-71
2022/09/12 00:31:20;;;;;;;0.08;0.08;;;;;;;11.05;100.00;101670.13;5037405;28;20035;-71
2022/09/12 00:33:45;;;;;;;0.00;0.00;;;;;;;10.80;100.00;101639.50;5038981;28;20541;-71
2022/09/12 00:36:16;;;;;;;0.17;0.10;;;;;;;10.98;100.00;101671.50;5041611;28;20152;-71
2022/09/12 00:38:43;;;;;;;0.10;0.10;;;;;;;10.69;100.00;101627.75;5047182;28;20031;-71
2022/09/12 00:41:20;;;;;;;0.00;0.00;;;;;;;10.82;100.00;101668.97;5039627;28;20082;-71
2022/09/12 00:43:48;;;;;;;0.10;0.10;;;;;;;10.75;100.00;101667.63;5037710;28;20032;-71
2022/09/12 00:46:45;;;;;;;0.00;0.00;;;;;;;10.55;100.00;101636.72;5042363;28;20032;-71
2022/09/12 00:49:23;;;;;;;0.10;0.10;;;;;;;10.65;100.00;101652.13;5042614;28;20476;-71
2022/09/12 00:51:58;;;;;;;0.00;0.00;;;;;;;10.63;100.00;101656.72;5035417;28;20074;-71
2022/09/12 00:54:26;;;;;;;0.00;0.00;;;;;;;10.61;100.00;101652.44;5036486;28;20047;-71
2022/09/12 00:56:54;;;;;;;0.00;0.00;;;;;;;10.59;100.00;101643.59;5039733;28;20470;-71
2022/09/12 00:59:24;;;;;;;0.10;0.10;;;;;;;10.56;100.00;101638.44;5040470;28;20037;-71
2022/09/12 01:01:50;;;;;;;0.00;0.00;;;;;;;10.45;100.00;101621.22;5038750;28;20290;-71
2022/09/12 01:04:17;;;;;;;0.00;0.00;;;;;;;10.55;100.00;101634.91;5037499;28;20123;-71
2022/09/12 01:06:43;;;;;;;0.00;0.00;;;;;;;10.53;100.00;101634.13;5040829;28;20609;-71
2022/09/12 01:09:11;;;;;;;0.10;0.10;;;;;;;10.49;100.00;101630.78;5044261;28;20123;-71
2022/09/12 01:11:37;;;;;;;0.05;0.05;;;;;;;10.45;100.00;101628.38;5039508;28;20036;-71
2022/09/12 01:14:03;;;;;;;0.10;0.10;;;;;;;10.40;100.00;101623.34;5037769;28;20083;-71
2022/09/12 01:16:28;;;;;;;0.00;0.00;;;;;;;10.33;100.00;101627.31;5043916;28;20159;-71
2022/09/12 01:19:03;;;;;;;0.10;0.10;;;;;;;10.29;100.00;101618.63;5039707;28;20764;-71
2022/09/12 01:21:51;;;;;;;0.00;0.00;;;;;;;10.31;100.00;101622.06;5046286;28;20024;-71
2022/09/12 01:24:48;;;;;;;0.10;0.10;;;;;;;10.24;100.00;101614.50;5035618;28;20032;-71
2022/09/12 01:27:32;;;;;;;0.10;0.10;;;;;;;10.29;100.00;101625.78;5043739;28;20344;-71
2022/09/12 01:30:43;;;;;;;0.10;0.10;;;;;;;10.28;100.00;101622.25;5037744;28;20645;-70
2022/09/12 01:33:17;;;;;;;0.00;0.00;;;;;;;10.26;100.00;101621.50;5049880;28;20040;-71
2022/09/12 01:36:04;;;;;;;0.10;0.10;;;;;;;10.15;100.00;101614.13;5041918;28;20032;-71
2022/09/12 01:38:55;;;;;;;0.30;0.08;;;;;;;10.17;100.00;101616.72;5039306;28;20062;-71
2022/09/12 01:41:34;;;;;;;0.08;0.08;;;;;;;10.28;100.00;101618.72;5052670;28;20037;-71
2022/09/12 01:44:34;;;;;;;0.10;0.10;;;;;;;10.27;100.00;101620.53;5063144;28;20458;-71
2022/09/12 01:47:11;;;;;;;0.10;0.10;;;;;;;10.25;100.00;101617.09;5042423;28;20075;-71
2022/09/12 01:49:56;;;;;;;0.00;0.00;;;;;;;10.26;100.00;101605.41;5039969;28;20408;-71
2022/09/12 01:52:26;;;;;;;0.00;0.00;;;;;;;10.31;100.00;101607.78;5059241;28;20767;-71
2022/09/12 01:55:06;;;;;;;0.10;0.10;;;;;;;10.04;100.00;101557.59;5062763;28;20444;-71
2022/09/12 01:57:50;;;;;;;0.10;0.10;;;;;;;10.27;100.00;101607.13;5061586;28;20120;-71
2022/09/12 02:00:15;;;;;;;0.00;0.00;;;;;;;10.31;100.00;101602.41;5055894;28;20125;-71
2022/09/12 02:03:12;;;;;;;0.10;0.10;;;;;;;10.39;100.00;101596.56;5065323;28;20025;-71
2022/09/12 02:05:42;;;;;;;0.20;0.20;;;;;;;10.39;100.00;101592.06;5049281;28;20036;-71
2022/09/12 02:08:11;;;;;;;0.10;0.10;;;;;;;10.32;100.00;101579.97;5073288;28;20119;-71
2022/09/12 02:10:43;;;;;;;0.10;0.10;;;;;;;10.39;100.00;101596.56;5051336;28;20035;-71
2022/09/12 02:13:16;;;;;;;0.10;0.10;;;;;;;10.32;100.00;101586.22;5067772;28;20021;-71
2022/09/12 02:15:48;;;;;;;0.10;0.10;;;;;;;10.33;100.00;101581.69;5047223;28;20725;-71
2022/09/12 02:18:17;;;;;;;0.10;0.10;;;;;;;10.32;100.00;101570.13;5046035;28;20040;-70
2022/09/12 02:20:44;;;;;;;0.10;0.10;;;;;;;10.34;100.00;101581.59;5044997;28;20028;-70
2022/09/12 02:23:13;;;;;;;0.00;0.00;;;;;;;10.32;100.00;101570.13;5049564;28;20033;-71
2022/09/12 02:25:41;;;;;;;0.10;0.10;;;;;;;10.18;100.00;101578.19;5066102;28;20033;-71
2022/09/12 02:28:13;;;;;;;0.10;0.10;;;;;;;10.16;100.00;101580.09;5044972;28;20036;-71
2022/09/12 02:30:43;;;;;;;0.10;0.10;;;;;;;10.15;100.00;101575.69;5041751;28;20834;-71
2022/09/12 02:33:31;;;;;;;0.00;0.00;;;;;;;10.13;100.00;101577.59;5030074;28;20039;-71
2022/09/12 02:36:03;;;;;;;0.00;0.00;;;;;;;10.15;100.00;101576.56;5049730;28;20035;-71
2022/09/12 02:38:36;;;;;;;0.00;0.00;;;;;;;10.09;100.00;101573.41;5043420;28;20094;-71
2022/09/12 02:41:02;;;;;;;0.10;0.10;;;;;;;10.04;100.00;101579.94;5042310;28;20025;-71
2022/09/12 02:43:27;;;;;;;0.10;0.10;;;;;;;10.05;100.00;101581.66;5042697;28;20054;-71
2022/09/12 02:45:52;;;;;;;0.00;0.00;;;;;;;10.11;100.00;101572.34;5052999;28;20031;-71
2022/09/12 02:48:21;;;;;;;0.00;0.00;;;;;;;10.20;100.00;101578.94;5039659;28;20734;-70
2022/09/12 02:50:46;;;;;;;0.00;0.00;;;;;;;10.26;100.00;101569.63;5039920;28;20020;-71
2022/09/12 02:53:12;;;;;;;0.00;0.00;;;;;;;10.18;100.00;101573.69;5043373;28;20518;-71
2022/09/12 02:55:39;;;;;;;0.00;0.00;;;;;;;10.04;100.00;101571.91;5059056;28;20468;-71
2022/09/12 02:58:07;;;;;;;0.10;0.10;;;;;;;10.02;100.00;101567.56;5066416;28;20086;-71
2022/09/12 03:00:38;;;;;;;0.00;0.00;;;;;;;9.96;100.00;101566.16;5066340;28;20024;-71
2022/09/12 03:03:24;;;;;;;0.30;0.30;;;;;;;9.86;100.00;101567.69;5060778;28;20034;-71
2022/09/12 03:05:58;;;;;;;0.40;0.40;;;;;;;9.87;100.00;101572.97;5061976;28;20067;-71
2022/09/12 03:08:50;;;;;;;0.00;0.00;;;;;;;9.82;100.00;101566.16;5064287;28;20503;-71
2022/09/12 03:11:33;;;;;;;0.10;0.10;;;;;;;9.85;100.00;101569.50;5065691;28;20028;-71
2022/09/12 03:14:30;;;;;;;0.03;0.03;;;;;;;9.91;100.00;101557.53;5063008;28;20032;-71
2022/09/12 03:17:35;;;;;;;0.10;0.10;;;;;;;9.94;100.00;101557.34;5080815;28;20047;-70
2022/09/12 03:20:49;;;;;;;0.10;0.10;;;;;;;9.99;100.00;101560.59;5067619;28;20024;-70
2022/09/12 03:23:25;;;;;;;0.10;0.10;;;;;;;9.95;100.00;101560.88;5065029;28;20052;-70
2022/09/12 03:26:02;;;;;;;0.10;0.10;;;;;;;10.02;100.00;101549.66;5062614;28;20090;-70
2022/09/12 03:28:27;;;;;;;0.10;0.10;;;;;;;10.05;100.00;101540.53;5066339;28;20171;-70
2022/09/12 03:30:55;;;;;;;0.10;0.10;;;;;;;10.00;100.00;101543.53;5063824;28;20660;-70
2022/09/12 03:33:22;;;;;;;0.10;0.10;;;;;;;10.04;100.00;101550.44;5064170;28;20518;-70
2022/09/12 03:35:48;;;;;;;0.10;0.10;;;;;;;10.06;100.00;101543.13;5047847;28;20158;-71
2022/09/12 03:38:13;;;;;;;0.10;0.10;;;;;;;10.18;100.00;101533.44;5061927;28;20032;-71
2022/09/12 03:40:39;;;;;;;0.08;0.08;;;;;;;10.26;100.00;101532.94;5062631;28;20074;-71
2022/09/12 03:43:06;;;;;;;0.10;0.10;;;;;;;10.38;100.00;101533.06;5066461;28;20067;-70
2022/09/12 03:45:32;;;;;;;0.10;0.10;;;;;;;10.43;100.00;101537.22;5060014;28;20283;-70
2022/09/12 03:47:57;;;;;;;0.10;0.10;;;;;;;10.46;100.00;101531.63;5063096;28;20040;-71
2022/09/12 03:50:22;;;;;;;0.20;0.20;;;;;;;10.57;100.00;101528.25;5066876;28;20130;-71
2022/09/12 03:52:48;;;;;;;0.10;0.10;;;;;;;10.60;100.00;101527.19;5067031;28;20370;-71
2022/09/12 03:55:13;;;;;;;0.10;0.10;;;;;;;10.67;100.00;101535.66;5063641;28;21621;-70
2022/09/12 03:57:39;;;;;;;0.10;0.10;;;;;;;10.69;100.00;101537.31;5059470;28;20672;-70
2022/09/12 04:00:07;;;;;;;0.13;0.13;;;;;;;10.73;100.00;101522.69;5065054;28;20491;-71
2022/09/12 04:02:32;;;;;;;0.13;0.13;;;;;;;10.61;100.00;101508.25;5065789;28;20431;-70
2022/09/12 04:04:57;;;;;;;0.10;0.10;;;;;;;10.84;100.00;101532.72;5057313;28;20040;-70
2022/09/12 04:07:23;;;;;;;0.10;0.10;;;;;;;10.89;100.00;101521.66;5074582;28;20101;-69
2022/09/12 04:09:48;;;;;;;0.15;0.15;;;;;;;11.00;100.00;101515.53;5069189;28;20032;-70
2022/09/12 04:12:13;;;;;;;0.10;0.10;;;;;;;11.07;100.00;101514.16;5042108;28;20032;-70
2022/09/12 04:14:39;;;;;;;0.10;0.10;;;;;;;10.99;100.00;101516.50;5043671;28;20147;-69
2022/09/12 04:17:05;;;;;;;0.10;0.10;;;;;;;11.05;100.00;101522.31;5045912;28;20031;-69
2022/09/12 04:19:30;;;;;;;0.20;0.20;;;;;;;11.09;100.00;101515.75;5040666;28;20059;-69
2022/09/12 04:21:55;;;;;;;0.10;0.10;;;;;;;11.13;100.00;101516.41;5048601;28;20051;-70
2022/09/12 04:24:21;;;;;;;0.10;0.10;;;;;;;11.16;100.00;101518.88;5040181;28;20035;-69
2022/09/12 04:26:46;;;;;;;0.30;0.30;;;;;;;11.16;100.00;101518.88;5043942;28;21232;-69
2022/09/12 04:29:11;;;;;;;0.10;0.10;;;;;;;11.17;100.00;101517.06;5040637;28;20036;-69
2022/09/12 04:31:37;;;;;;;0.15;0.15;;;;;;;11.21;100.00;101518.56;5046357;28;20027;-69
2022/09/12 04:34:04;;;;;;;0.15;0.15;;;;;;;11.28;100.00;101503.72;5039004;28;20523;-69
2022/09/12 04:36:30;;;;;;;0.10;0.10;;;;;;;11.31;100.00;101506.19;5043249;28;20029;-70
2022/09/12 04:38:55;;;;;;;0.10;0.10;;;;;;;11.31;100.00;101503.50;5040511;28;20608;-69
2022/09/12 04:41:26;;;;;;;0.10;0.10;;;;;;;11.38;100.00;101506.66;5039282;28;20031;-69
2022/09/12 04:43:57;;;;;;;0.10;0.10;;;;;;;11.40;100.00;101516.31;5035757;28;20412;-69
2022/09/12 04:46:23;;;;;;;0.17;0.17;;;;;;;11.42;100.00;101501.91;5045334;28;20021;-69
2022/09/12 04:48:48;;;;;;;0.20;0.20;;;;;;;11.39;100.00;101506.53;5040507;28;20028;-69
2022/09/12 04:51:16;;;;;;;0.10;0.10;;;;;;;11.47;100.00;101511.34;5039981;28;20035;-67
2022/09/12 04:53:46;;;;;;;0.20;0.20;;;;;;;11.54;100.00;101503.69;5044514;28;20062;-68
2022/09/12 04:56:11;;;;;;;0.15;0.15;;;;;;;11.53;100.00;101502.84;5041462;28;20036;-68
2022/09/12 04:58:37;;;;;;;0.13;0.13;;;;;;;11.56;100.00;101509.84;5038739;28;20067;-69
2022/09/12 05:01:10;;;;;;;0.10;0.10;;;;;;;11.54;100.00;101501.88;5045134;28;20025;-67
2022/09/12 05:03:39;;;;;;;0.10;0.10;;;;;;;11.63;100.00;101505.75;5043526;28;20032;-68
2022/09/12 05:06:06;;;;;;;0.10;0.10;;;;;;;11.68;100.00;101502.72;5045804;28;20102;-66
2022/09/12 05:08:32;;;;;;;0.10;0.10;;;;;;;11.68;100.00;101503.59;5047067;28;20063;-67
2022/09/12 05:11:05;;;;;;;0.10;0.10;;;;;;;11.73;100.00;101503.25;5040895;28;20036;-67
2022/09/12 05:13:31;;;;;;;0.10;0.10;;;;;;;11.78;100.00;101502.94;5039412;28;20039;-67
2022/09/12 05:15:58;;;;;;;0.20;0.20;;;;;;;11.88;100.00;101500.44;5048030;28;20036;-67
2022/09/12 05:18:25;;;;;;;0.20;0.20;;;;;;;11.90;100.00;101503.88;5046397;28;20028;-67
2022/09/12 05:20:50;;;;;;;0.10;0.10;;;;;;;11.91;100.00;101514.50;5038301;28;20032;-67
2022/09/12 05:23:16;;;;;;;0.10;0.10;;;;;;;11.96;100.00;101511.47;5048711;28;20033;-67
2022/09/12 05:25:51;;;;;;;0.20;0.20;;;;;;;11.89;100.00;101494.91;5054837;28;20028;-67
2022/09/12 05:28:17;;;;;;;0.20;0.20;;;;;;;12.01;100.00;101512.03;5048585;28;20435;-67
2022/09/12 05:30:43;;;;;;;0.20;0.20;;;;;;;12.04;100.00;101509.13;5044610;28;20205;-67
2022/09/12 05:33:08;;;;;;;0.10;0.10;;;;;;;12.09;100.00;101508.78;5058199;28;20044;-67
2022/09/12 05:35:33;;;;;;;0.10;0.10;;;;;;;12.19;100.00;101506.25;5051577;28;20036;-66
2022/09/12 05:37:59;;;;;;;0.20;0.20;;;;;;;12.25;100.00;101504.00;5046988;28;20835;-66
2022/09/12 05:40:24;;;;;;;0.20;0.20;;;;;;;12.29;100.00;101505.47;5065334;28;20094;-67
2022/09/12 05:42:49;;;;;;;0.17;0.17;;;;;;;12.34;100.00;101504.25;5067174;28;20039;-67
2022/09/12 05:45:15;;;;;;;0.20;0.20;;;;;;;12.36;100.00;101510.38;5069707;28;20481;-67
2022/09/12 05:47:42;;;;;;;0.20;0.20;;;;;;;12.36;100.00;101510.38;5069249;28;20290;-67
2022/09/12 05:50:09;;;;;;;0.10;0.10;;;;;;;12.40;100.00;101503.81;5064369;28;20418;-66
2022/09/12 05:52:36;;;;;;;0.20;0.20;;;;;;;12.44;100.00;101506.16;5063396;28;20032;-66
2022/09/12 05:55:01;;;;;;;0.20;0.20;;;;;;;12.47;100.00;101510.44;5058231;28;20044;-67
2022/09/12 05:57:28;;;;;;;0.13;0.13;;;;;;;12.35;100.00;101490.69;5064401;28;20392;-67
2022/09/12 05:59:53;;;;;;;0.20;0.20;;;;;;;12.37;100.00;101498.63;5068974;28;20020;-67
2022/09/12 06:02:18;;;;;;;0.10;0.10;;;;;;;12.52;100.00;101519.06;5068592;28;20032;-67
2022/09/12 06:04:44;;;;;;;0.10;0.10;;;;;;;12.56;100.00;101509.78;5067700;28;20424;-67
2022/09/12 06:07:10;;;;;;;0.20;0.20;;;;;;;12.63;100.00;101514.66;5072057;28;20036;-66
2022/09/12 06:09:35;;;;;;;0.20;0.20;;;;;;;12.65;100.00;101521.69;5070932;28;20024;-67
2022/09/12 06:12:00;;;;;;;0.10;0.10;;;;;;;12.63;100.00;101514.66;5069001;28;20439;-66
2022/09/12 06:14:26;;;;;;;0.20;0.20;;;;;;;12.49;100.00;101488.78;5047819;28;20534;-67
2022/09/12 06:16:51;;;;;;;0.20;0.20;;;;;;;12.70;100.00;101522.19;5051717;28;20058;-66
2022/09/12 06:19:18;;;;;;;0.20;0.20;;;;;;;12.74;100.00;101517.41;5045594;28;20039;-66
2022/09/12 06:21:45;;;;;;;0.20;0.20;;;;;;;12.75;100.00;101525.38;5043108;28;20063;-66
2022/09/12 06:24:10;;;;;;;0.20;0.20;;;;;;;12.58;100.00;101491.63;5051558;28;20126;-66
2022/09/12 06:26:36;;;;;;;0.10;0.10;;;;;;;12.78;100.00;101521.59;5044783;28;20459;-67
2022/09/12 06:29:01;;;;;;;0.25;0.25;;;;;;;12.78;100.00;101524.28;5047731;28;20033;-67
2022/09/12 06:31:32;;;;;;;0.20;0.20;;;;;;;12.77;100.00;101519.88;5045163;28;20051;-67
2022/09/12 06:34:00;;;;;;;0.20;0.20;;;;;;;12.80;100.00;101526.84;5042126;28;20031;-66
2022/09/12 06:36:30;;;;;;;0.20;0.20;;;;;;;12.78;100.00;101518.03;5043936;28;20021;-66
2022/09/12 06:38:58;;;;;;;0.10;0.10;;;;;;;12.77;100.00;101511.78;5049110;28;20036;-67
2022/09/12 06:41:24;;;;;;;0.10;0.10;;;;;;;12.74;100.00;101512.88;5043109;28;20028;-66
2022/09/12 06:43:49;;;;;;;0.22;0.22;;;;;;;12.73;100.00;101519.22;5043830;28;20059;-66
2022/09/12 06:46:15;;;;;;;0.10;0.10;;;;;;;12.59;100.00;101497.88;5045674;28;20025;-66
2022/09/12 06:48:40;;;;;;;0.20;0.20;;;;;;;12.74;100.00;101517.41;5047284;28;20595;-67
2022/09/12 06:51:09;;;;;;;0.20;0.20;;;;;;;12.77;100.00;101519.00;5041656;28;20040;-67
2022/09/12 06:53:38;;;;;;;0.20;0.20;;;;;;;12.70;100.00;101513.22;5043124;28;20037;-68
2022/09/12 06:56:05;;;;;;;0.20;0.20;;;;;;;12.78;100.00;101513.50;5044841;28;20484;-67
2022/09/12 06:58:31;;;;;;;0.20;0.20;;;;;;;12.81;100.00;101512.41;5041823;28;20033;-67
2022/09/12 07:01:12;;;;;;;0.20;0.20;;;;;;;12.81;100.00;101513.28;5047195;28;20123;-67
2022/09/12 07:03:37;;;;;;;0.20;0.20;;;;;;;12.75;100.00;101506.50;5045905;28;20123;-66
2022/09/12 07:06:08;;;;;;;0.20;0.20;;;;;;;12.65;100.00;101480.38;5045912;28;20038;-67
2022/09/12 07:08:35;;;;;;;0.30;0.30;;;;;;;12.92;100.00;101514.28;5042648;28;20066;-67
2022/09/12 07:11:14;;;;;;;0.20;0.20;;;;;;;13.09;100.00;101513.84;5046849;28;20040;-67
2022/09/12 07:13:40;;;;;;;0.38;0.38;;;;;;;13.09;100.00;101483.31;5040385;28;20112;-67
2022/09/12 07:16:07;;;;;;;0.28;0.28;;;;;;;13.41;100.00;101515.00;5044631;28;20024;-67
2022/09/12 07:18:33;;;;;;;0.30;0.30;;;;;;;13.59;100.00;101518.94;5048242;28;20032;-67
2022/09/12 07:21:00;;;;;;;0.20;0.20;;;;;;;13.61;100.00;101495.38;5042219;28;20032;-67
2022/09/12 07:23:26;;;;;;;0.35;0.35;;;;;;;13.89;100.00;101506.66;5050608;28;20024;-67
2022/09/12 07:25:55;;;;;;;0.30;0.30;;;;;;;13.91;100.00;101491.19;5050818;28;20581;-67
2022/09/12 07:28:22;;;;;;;0.40;0.40;;;;;;;14.18;100.00;101498.00;5051245;28;20020;-67
2022/09/12 07:30:47;;;;;;;0.25;0.25;;;;;;;14.35;100.00;101491.19;5046403;28;20024;-66
2022/09/12 07:33:12;;;;;;;0.20;0.20;;;;;;;14.38;100.00;101473.84;5045785;28;20645;-68
2022/09/12 07:35:38;;;;;;;0.30;0.30;;;;;;;14.33;100.00;101457.19;5043890;28;22515;-72
2022/09/12 07:38:03;;;;;;;0.20;0.20;;;;;;;14.60;100.00;101491.81;5043905;28;20070;-69
2022/09/12 07:40:28;;;;;;;0.20;0.20;;;;;;;14.72;100.00;101494.50;5050621;28;20032;-71
2022/09/12 07:42:54;;;;;;;0.10;0.10;;;;;;;14.65;100.00;101449.06;5067398;28;20028;-72
2022/09/12 07:45:19;;;;;;;0.20;0.20;;;;;;;14.96;100.00;101486.97;5066525;28;20048;-70
2022/09/12 07:47:44;;;;;;;0.20;0.20;;;;;;;15.24;100.00;101508.91;5076019;28;20067;-69
2022/09/12 07:50:10;;;;;;;0.20;0.20;;;;;;;15.33;100.00;101501.00;5074107;28;20384;-71
2022/09/12 07:52:35;;;;;;;0.10;0.10;;;;;;;15.35;100.00;101507.13;5073285;28;20032;-71
2022/09/12 07:55:01;;;;;;;0.17;0.17;;;;;;;15.57;100.00;101492.56;5075892;28;20024;-71
2022/09/12 07:57:26;;;;;;;0.10;0.10;;;;;;;15.84;100.00;101512.75;5056508;28;20067;-71
2022/09/12 07:59:51;;;;;;;0.10;0.10;;;;;;;15.92;100.00;101498.56;5065157;28;20075;-72
2022/09/12 08:02:17;;;;;;;0.10;0.10;;;;;;;15.94;100.00;101501.97;5071028;28;20492;-76
2022/09/12 08:04:43;;;;;;;0.08;0.08;;;;;;;16.13;100.00;101506.59;5068341;28;20056;-73
2022/09/12 08:07:08;;;;;;;0.03;0.03;;;;;;;16.07;100.00;101480.06;5064907;28;20411;-70
2022/09/12 08:09:34;;;;;;;0.10;0.10;;;;;;;16.39;100.00;101497.94;5067691;28;20063;-68
2022/09/12 08:12:00;;;;;;;0.03;0.03;;;;;;;16.61;100.00;101502.19;5062842;28;20032;-69
2022/09/12 08:14:26;;;;;;;0.00;0.00;;;;;;;16.85;100.00;101507.19;5045220;28;22138;-70
2022/09/12 08:16:51;;;;;;;0.00;0.00;;;;;;;17.02;100.00;101515.59;5048747;28;20020;-69
2022/09/12 08:19:17;;;;;;;0.00;0.00;;;;;;;17.05;100.00;101504.47;5040975;28;20401;-70
2022/09/12 08:21:42;;;;;;;0.00;0.00;;;;;;;17.10;100.00;101510.31;5042385;28;20035;-72
2022/09/12 08:24:10;;;;;;;0.10;0.10;;;;;;;17.31;100.00;101498.38;5051024;28;20029;-72
2022/09/12 08:26:36;;;;;;;0.00;0.00;;;;;;;17.48;99.25;101513.88;5042408;28;20028;-71
2022/09/12 08:29:03;;;;;;;0.00;0.00;;;;;;;17.47;100.00;101519.47;5039777;28;20024;-72
2022/09/12 08:31:30;;;;;;;0.00;0.00;;;;;;;17.56;98.07;101517.72;5040280;28;20168;-72
2022/09/12 08:33:56;;;;;;;0.00;0.00;;;;;;;17.53;98.04;101527.03;5038671;28;20025;-72
2022/09/12 08:36:24;;;;;;;0.03;0.03;;;;;;;17.71;94.80;101521.69;5048698;28;20074;-73
2022/09/12 08:38:54;;;;;;;0.00;0.00;;;;;;;17.64;96.40;101521.41;5043192;28;20464;-73
2022/09/12 08:41:48;;;;;;;0.08;0.08;;;;;;;17.79;97.86;101524.47;5039927;28;20111;-69
2022/09/12 08:44:24;;;;;;;0.00;0.00;;;;;;;18.03;94.83;101523.09;5042239;28;20040;-73
2022/09/12 08:47:20;;;;;;;0.17;0.08;;;;;;;18.24;95.05;101521.97;5050652;28;20028;-75
2022/09/12 08:50:01;;;;;;;0.00;0.00;;;;;;;18.35;92.68;101519.03;5040348;28;20111;-74
2022/09/12 08:52:57;;;;;;;0.00;0.00;;;;;;;18.46;91.39;101512.50;5042265;28;20110;-75
2022/09/12 08:55:44;;;;;;;0.00;0.00;;;;;;;18.54;91.78;101519.91;5023263;28;20097;-74
2022/09/12 08:58:15;;;;;;;0.05;0.05;;;;;;;18.65;89.88;101522.38;5042239;28;20372;-73
2022/09/12 09:01:02;;;;;;;0.00;0.00;;;;;;;18.86;90.23;101510.31;5038780;28;20058;-71
2022/09/12 09:03:49;;;;;;;0.00;0.00;;;;;;;19.16;89.41;101508.16;5037583;28;20024;-70
2022/09/12 09:06:33;;;;;;;0.00;0.00;;;;;;;19.07;85.89;101511.88;5046983;28;20036;-72
2022/09/12 09:09:41;;;;;;;0.00;0.00;;;;;;;19.22;84.88;101506.66;5040692;28;20032;-68
2022/09/12 09:12:24;;;;;;;0.00;0.00;;;;;;;19.31;87.55;101503.00;5040372;28;20653;-73
2022/09/12 09:15:04;;;;;;;0.00;0.00;;;;;;;19.33;84.71;101500.97;5045175;28;20012;-72
2022/09/12 09:17:29;;;;;;;0.00;0.00;;;;;;;19.58;84.96;101504.69;5047307;28;20078;-79
2022/09/12 09:20:15;;;;;;;0.00;0.00;;;;;;;19.41;85.72;101471.06;5043349;28;20024;-75
2022/09/12 09:22:44;;;;;;;0.00;0.00;;;;;;;19.70;83.96;101501.66;5045765;28;20120;-75
2022/09/12 09:25:21;;;;;;;0.00;0.00;;;;;;;19.41;82.71;101432.94;5048437;28;20032;-70
2022/09/12 09:27:56;;;;;;;0.00;0.00;;;;;;;19.91;83.53;101488.47;5055009;28;20066;-73
2022/09/12 09:30:21;;;;;;;0.00;0.00;;;;;;;20.20;81.27;101508.16;5022010;28;20118;-70
2022/09/12 09:32:52;;;;;;;0.00;0.00;;;;;;;20.27;79.94;101497.44;5050731;28;20040;-70
2022/09/12 09:35:37;;;;;;;0.00;0.00;;;;;;;20.20;79.37;101475.44;5043484;28;20040;-72
2022/09/12 09:38:24;;;;;;;0.00;0.00;;;;;;;20.61;80.20;101486.38;5043019;28;20021;-72
2022/09/12 09:41:08;;;;;;;0.00;0.00;;;;;;;20.98;76.31;101485.03;5050705;28;20557;-69
2022/09/12 09:43:33;;;;;;;;;;;;;;;20.92;77.36;101482.97;5061916;28;20062;-74
2022/09/12 09:45:59;;;;;;;0.00;0.00;;;;;;;20.64;75.02;101466.94;5060043;28;19947;-75
2022/09/12 09:48:33;;;;;;;0.00;0.00;;;;;;;21.07;74.86;101474.94;5064933;28;20280;-70
2022/09/12 09:50:59;;;;;;;;;;;;;;;21.17;75.40;101482.94;5058186;28;20056;-75
2022/09/12 09:53:47;;;;;;;0.00;0.00;;;;;;;21.12;72.64;101482.59;5062502;28;20318;-70
2022/09/12 09:56:27;;;;;;;0.00;0.00;;;;;;;21.43;73.49;101473.66;5067497;28;20464;-75
2022/09/12 09:58:52;;;;;;;0.00;0.00;;;;;;;21.57;72.40;101470.19;5064024;28;20047;-75
2022/09/12 10:01:18;;;;;;;0.00;0.00;;;;;;;21.75;73.24;101476.44;5069568;28;20028;-75
2022/09/12 10:03:51;;;;;;;0.00;0.00;;;;;;;21.86;70.20;101468.69;5065250;28;20479;-75
2022/09/12 10:06:19;;;;;;;0.00;0.00;;;;;;;21.78;69.14;101466.03;5067109;28;20493;-71
2022/09/12 10:08:45;;;;;;;0.00;0.00;;;;;;;21.80;70.03;101469.44;5065339;28;20060;-75
2022/09/12 10:11:18;;;;;;;0.00;0.00;;;;;;;21.92;70.23;101464.41;5054869;28;20033;-73
2022/09/12 10:13:50;;;;;;;0.00;0.00;;;;;;;22.24;69.72;101450.69;5041495;28;20028;-71
2022/09/12 10:16:24;;;;;;;0.00;0.00;;;;;;;22.42;68.35;101451.22;5048259;28;21128;-74
2022/09/12 10:18:51;;;;;;;0.00;0.00;;;;;;;22.44;67.52;101451.09;5047175;28;20040;-70
2022/09/12 10:21:34;;;;;;;0.00;0.00;;;;;;;22.38;66.92;101422.53;5045027;28;20115;-71
2022/09/12 10:24:18;;;;;;;0.00;0.00;;;;;;;22.47;69.06;101453.47;5048655;28;20059;-75
2022/09/12 10:26:49;;;;;;;0.00;0.00;;;;;;;22.57;65.39;101451.31;5050121;28;20105;-71
2022/09/12 10:29:20;;;;;;;0.00;0.00;;;;;;;22.52;64.87;101420.91;5043959;28;20455;-70
2022/09/12 10:31:50;;;;;;;0.00;0.00;;;;;;;22.90;61.95;101437.31;5042290;28;20029;-73
2022/09/12 10:34:29;;;;;;;0.00;0.00;;;;;;;23.13;62.46;101435.56;5042499;28;20392;-71
2022/09/12 10:37:00;;;;;;;0.00;0.00;;;;;;;23.10;61.49;101436.75;5049496;28;20024;-75
2022/09/12 10:39:26;;;;;;;0.00;0.00;;;;;;;23.33;58.88;101433.09;5043848;28;22264;-67
2022/09/12 10:41:51;;;;;;;0.00;0.00;;;;;;;22.98;61.06;101413.63;5040361;28;21454;-72
2022/09/12 10:44:26;;;;;;;0.00;0.00;;;;;;;23.37;60.47;101409.75;5043537;28;20119;-72
2022/09/12 10:46:53;;;;;;;0.00;0.00;;;;;;;23.84;59.18;101415.81;5049299;28;20253;-71
2022/09/12 10:49:18;;;;;;;0.00;0.00;;;;;;;24.70;59.12;101412.19;5046072;28;20641;-71
2022/09/12 10:51:44;;;;;;;0.00;0.00;;;;;;;25.05;56.78;101410.56;5045468;28;20056;-72
2022/09/12 10:54:11;;;;;;;0.00;0.00;;;;;;;25.58;54.21;101410.84;5045355;28;20127;-72
2022/09/12 10:57:14;;;;;;;0.00;0.00;;;;;;;25.36;54.17;101399.09;5043917;28;20028;-72
2022/09/12 11:00:26;;;;;;;0.00;0.00;;;;;;;25.01;50.71;101397.22;5046334;28;20028;-71
2022/09/12 11:03:15;;;;;;;0.00;0.00;;;;;;;25.38;51.52;101401.66;5038141;28;22382;-71
2022/09/12 11:05:59;;;;;;;0.00;0.00;;;;;;;25.29;52.58;101395.47;5044959;28;20039;-72
2022/09/12 11:08:39;;;;;;;0.00;0.00;;;;;;;25.20;53.46;101392.03;5045981;28;20070;-71
2022/09/12 11:11:36;;;;;;;0.00;0.00;;;;;;;25.23;51.25;101382.56;5039742;28;20032;-68
2022/09/12 11:14:28;;;;;;;0.00;0.00;;;;;;;25.22;51.82;101384.44;5041825;28;20036;-70
2022/09/12 11:17:09;;;;;;;0.00;0.00;;;;;;;25.64;49.22;101378.09;5050955;28;20062;-73
2022/09/12 11:19:49;;;;;;;0.00;0.00;;;;;;;25.73;50.98;101377.69;5048631;28;20486;-69
2022/09/12 11:22:50;;;;;;;0.00;0.00;;;;;;;26.29;49.57;101374.81;5049637;28;20035;-68
2022/09/12 11:25:33;;;;;;;0.00;0.00;;;;;;;26.23;49.34;101376.50;5031396;28;20040;-68
2022/09/12 11:28:23;;;;;;;0.00;0.00;;;;;;;26.59;45.85;101368.88;5056188;28;20163;-68
2022/09/12 11:31:34;;;;;;;0.00;0.00;;;;;;;26.75;47.31;101370.31;5046672;28;20051;-67
2022/09/12 11:34:01;;;;;;;0.00;0.00;;;;;;;26.41;47.08;101351.09;5024618;28;20103;-69
2022/09/12 11:36:41;;;;;;;0.00;0.00;;;;;;;26.19;45.86;101370.59;5045552;28;20381;-69
2022/09/12 11:39:39;;;;;;;0.00;0.00;;;;;;;26.26;46.29;101367.84;5040099;28;20032;-68
2022/09/12 11:42:08;;;;;;;0.00;0.00;;;;;;;26.26;46.04;101373.34;5061071;28;20045;-69